createdAt,value
2018-11-05T00:01:57.532Z,86.21
2018-11-05T00:04:25.990Z,91.91
2018-11-05T00:06:54.459Z,90.29
2018-11-05T00:09:22.934Z,86.64
2018-11-05T00:11:51.443Z,90.05
2018-11-05T00:14:19.976Z,89.01
2018-11-05T00:16:48.513Z,87.76
2018-11-05T00:19:16.995Z,88.30
2018-11-05T00:21:45.475Z,90.85
2018-11-05T00:24:14.277Z,90.88
2018-11-05T00:26:42.777Z,90.58
2018-11-05T00:29:11.286Z,91.75
2018-11-05T00:31:39.781Z,90.99
2018-11-05T00:34:08.266Z,88.50
2018-11-05T00:36:36.721Z,94.04
2018-11-05T00:39:08.270Z,90.48
2018-11-05T00:41:37.608Z,88.59
2018-11-05T00:44:06.809Z,86.43
2018-11-05T00:46:35.497Z,89.38
2018-11-05T00:49:04.388Z,92.41
2018-11-05T00:51:33.284Z,85.74
2018-11-05T00:54:01.787Z,89.67
2018-11-05T00:56:30.333Z,86.97
2018-11-05T00:58:58.944Z,87.57
2018-11-05T01:01:28.280Z,89.54
2018-11-05T01:03:56.759Z,91.01
2018-11-05T01:06:25.495Z,90.00
2018-11-05T01:08:53.974Z,87.13
2018-11-05T01:11:22.453Z,89.38
2018-11-05T01:13:50.968Z,92.15
2018-11-05T01:16:19.422Z,91.26
2018-11-05T01:18:47.936Z,92.43
2018-11-05T01:21:16.391Z,89.16
2018-11-05T01:23:44.907Z,90.29
2018-11-05T01:26:13.403Z,92.89
2018-11-05T01:28:41.883Z,91.12
2018-11-05T01:31:10.348Z,90.02
2018-11-05T01:33:39.063Z,90.97
2018-11-05T01:36:07.556Z,94.59
2018-11-05T01:38:36.194Z,93.56
2018-11-05T01:41:04.715Z,89.05
2018-11-05T01:43:33.207Z,93.99
2018-11-05T01:46:01.648Z,92.18
2018-11-05T01:48:30.117Z,88.86
2018-11-05T01:50:58.768Z,91.25
2018-11-05T01:53:27.259Z,92.99
2018-11-05T01:55:55.746Z,90.23
2018-11-05T01:58:24.272Z,93.34
2018-11-05T02:00:52.759Z,88.55
2018-11-05T02:03:21.284Z,91.74
2018-11-05T02:05:50.004Z,90.51
2018-11-05T02:08:18.559Z,87.60
2018-11-05T02:10:47.072Z,88.77
2018-11-05T02:13:15.568Z,94.92
2018-11-05T02:15:44.079Z,91.95
2018-11-05T02:18:12.571Z,93.85
2018-11-05T02:20:41.064Z,92.90
2018-11-05T02:23:09.529Z,88.39
2018-11-05T02:25:38.015Z,94.10
2018-11-05T02:28:07.158Z,91.19
2018-11-05T02:30:35.852Z,90.26
2018-11-05T02:33:04.371Z,93.26
2018-11-05T02:35:32.904Z,90.33
2018-11-05T02:38:01.380Z,90.25
2018-11-05T02:40:29.891Z,90.50
2018-11-05T02:42:58.414Z,91.82
2018-11-05T02:45:27.188Z,91.05
2018-11-05T02:47:55.648Z,90.83
2018-11-05T02:50:24.279Z,90.87
2018-11-05T02:52:52.802Z,91.26
2018-11-05T02:55:21.277Z,91.33
2018-11-05T02:57:49.732Z,93.00
2018-11-05T03:00:19.392Z,89.63
2018-11-05T03:02:48.183Z,92.60
2018-11-05T03:05:18.797Z,90.08
2018-11-05T03:07:48.346Z,93.37
2018-11-05T03:10:17.204Z,91.16
2018-11-05T03:12:46.698Z,91.22
2018-11-05T03:15:16.535Z,91.51
2018-11-05T03:17:45.008Z,92.31
2018-11-05T03:20:14.603Z,91.20
2018-11-05T03:22:43.619Z,88.55
2018-11-05T03:25:12.155Z,90.54
2018-11-05T03:27:41.272Z,89.02
2018-11-05T03:30:11.735Z,86.02
2018-11-05T03:32:40.534Z,86.57
2018-11-05T03:35:10.332Z,85.93
2018-11-05T03:37:39.437Z,90.49
2018-11-05T03:40:09.362Z,89.95
2018-11-05T03:42:38.786Z,89.59
2018-11-05T03:45:08.761Z,90.09
2018-11-05T03:47:37.235Z,90.84
2018-11-05T03:50:07.944Z,85.52
2018-11-05T03:52:36.788Z,87.47
2018-11-05T03:55:06.061Z,86.40
2018-11-05T03:57:34.520Z,88.38
2018-11-05T04:00:03.100Z,88.37
2018-11-05T04:02:31.900Z,89.81
2018-11-05T04:05:00.337Z,87.29
2018-11-05T04:07:29.312Z,84.32
2018-11-05T04:09:57.892Z,88.29
2018-11-05T04:15:25.412Z,85.13
2018-11-05T04:17:53.947Z,83.39
2018-11-05T04:20:22.481Z,89.16
2018-11-05T04:22:50.980Z,83.21
2018-11-05T04:25:19.410Z,87.67
2018-11-05T04:27:48.037Z,84.39
2018-11-05T04:30:16.917Z,85.83
2018-11-05T04:32:45.391Z,86.27
2018-11-05T04:35:14.329Z,86.77
2018-11-05T04:37:43.193Z,85.71
2018-11-05T04:40:12.167Z,85.20
2018-11-05T04:42:41.015Z,86.50
2018-11-05T04:45:11.397Z,87.20
2018-11-05T04:47:40.021Z,86.09
2018-11-05T04:50:10.350Z,86.70
2018-11-05T04:52:39.736Z,87.81
2018-11-05T04:55:08.497Z,88.32
2018-11-05T04:57:37.427Z,88.88
2018-11-05T05:00:12.117Z,88.09
2018-11-05T05:02:41.660Z,86.38
2018-11-05T05:05:11.227Z,88.40
2018-11-05T05:07:39.691Z,87.34
2018-11-05T05:10:09.138Z,87.26
2018-11-05T05:12:38.664Z,86.07
2018-11-05T05:15:07.580Z,86.31
2018-11-05T05:17:36.157Z,85.99
2018-11-05T05:20:06.393Z,85.03
2018-11-05T05:22:34.946Z,88.53
2018-11-05T05:25:03.417Z,87.31
2018-11-05T05:27:31.897Z,87.07
2018-11-05T05:30:00.379Z,86.60
2018-11-05T05:32:28.885Z,86.47
2018-11-05T05:34:57.387Z,88.31
2018-11-05T05:37:25.877Z,87.71
2018-11-05T05:39:54.378Z,87.43
2018-11-05T05:42:22.914Z,88.81
2018-11-05T05:44:51.443Z,86.97
2018-11-05T05:47:19.947Z,87.10
2018-11-05T05:49:48.477Z,85.60
2018-11-05T05:52:16.971Z,85.58
2018-11-05T05:54:45.473Z,86.73
2018-11-05T05:57:14.033Z,87.62
2018-11-05T05:59:42.721Z,89.33
2018-11-05T06:02:11.394Z,85.83
2018-11-05T06:04:40.320Z,86.97
2018-11-05T06:07:09.029Z,86.25
2018-11-05T06:09:37.512Z,86.24
2018-11-05T06:12:06.808Z,87.89
2018-11-05T06:14:35.510Z,87.16
2018-11-05T06:17:04.060Z,86.63
2018-11-05T06:19:32.537Z,85.10
2018-11-05T06:22:01.122Z,86.15
2018-11-05T06:24:29.882Z,86.65
2018-11-05T06:26:58.392Z,87.23
2018-11-05T06:29:26.877Z,87.88
2018-11-05T06:31:55.389Z,86.94
2018-11-05T06:34:23.866Z,88.19
2018-11-05T06:36:52.347Z,88.65
2018-11-05T06:39:21.111Z,86.56
2018-11-05T06:41:49.628Z,89.07
2018-11-05T06:44:18.172Z,86.64
2018-11-05T06:46:46.696Z,85.96
2018-11-05T06:49:15.234Z,89.39
2018-11-05T06:51:43.731Z,88.67
2018-11-05T06:54:12.469Z,87.03
2018-11-05T06:56:40.928Z,87.61
2018-11-05T06:59:09.418Z,86.09
2018-11-05T07:01:38.078Z,83.95
2018-11-05T07:04:06.775Z,85.47
2018-11-05T07:06:35.268Z,87.71
2018-11-05T07:09:05.450Z,83.96
2018-11-05T07:11:34.048Z,82.23
2018-11-05T07:14:02.429Z,84.87
2018-11-05T07:16:30.902Z,85.60
2018-11-05T07:18:59.593Z,82.70
2018-11-05T07:21:27.863Z,86.22
2018-11-05T07:23:56.341Z,83.12
2018-11-05T07:26:24.848Z,82.50
2018-11-05T07:28:53.372Z,83.33
2018-11-05T07:31:21.854Z,82.42
2018-11-05T07:33:50.709Z,80.46
2018-11-05T07:36:19.648Z,80.91
2018-11-05T07:38:48.139Z,81.02
2018-11-05T07:41:16.652Z,79.24
2018-11-05T07:43:45.157Z,79.28
2018-11-05T07:46:13.659Z,77.46
2018-11-05T07:48:42.202Z,79.67
2018-11-05T07:51:10.671Z,80.19
2018-11-05T07:53:39.189Z,76.36
2018-11-05T07:56:08.085Z,76.40
2018-11-05T07:58:36.502Z,74.72
2018-11-05T08:01:05.760Z,73.89
2018-11-05T08:03:34.230Z,73.14
2018-11-05T08:06:02.682Z,70.20
2018-11-05T08:08:31.682Z,73.65
2018-11-05T08:11:00.446Z,75.28
2018-11-05T08:13:28.935Z,72.50
2018-11-05T08:15:57.455Z,66.69
2018-11-05T08:18:26.184Z,70.27
2018-11-05T08:20:54.664Z,71.44
2018-11-05T08:23:23.138Z,69.99
2018-11-05T08:25:51.658Z,71.77
2018-11-05T08:28:20.136Z,69.02
2018-11-05T08:30:48.652Z,69.15
2018-11-05T08:33:17.342Z,69.21
2018-11-05T08:35:45.793Z,70.56
2018-11-05T08:38:14.475Z,69.82
2018-11-05T08:40:42.994Z,68.29
2018-11-05T08:43:11.497Z,69.26
2018-11-05T08:45:39.984Z,66.61
2018-11-05T08:48:08.593Z,68.35
2018-11-05T08:50:37.101Z,67.04
2018-11-05T08:53:05.633Z,70.28
2018-11-05T08:55:34.124Z,68.60
2018-11-05T08:58:02.597Z,67.79
2018-11-05T09:00:36.245Z,66.94
2018-11-05T09:03:05.368Z,65.90
2018-11-05T09:05:33.900Z,67.73
2018-11-05T09:08:02.383Z,64.91
2018-11-05T09:10:31.047Z,65.19
2018-11-05T09:12:59.364Z,66.92
2018-11-05T09:15:27.841Z,68.65
2018-11-05T09:17:56.336Z,67.67
2018-11-05T09:20:24.946Z,65.87
2018-11-05T09:22:54.068Z,66.62
2018-11-05T09:25:22.583Z,62.63
2018-11-05T09:27:51.202Z,61.76
2018-11-05T09:30:21.045Z,61.72
2018-11-05T09:32:49.537Z,63.89
2018-11-05T09:35:18.524Z,61.47
2018-11-05T09:37:47.228Z,62.65
2018-11-05T09:40:17.880Z,63.87
2018-11-05T09:42:46.956Z,61.74
2018-11-05T09:45:21.924Z,61.36
2018-11-05T09:47:50.937Z,57.64
2018-11-05T09:50:20.007Z,58.05
2018-11-05T09:52:48.463Z,57.12
2018-11-05T09:55:17.276Z,58.91
2018-11-05T09:57:45.735Z,57.02
2018-11-05T10:00:17.360Z,57.90
2018-11-05T10:02:51.110Z,57.90
2018-11-05T10:05:19.617Z,55.31
2018-11-05T10:07:48.316Z,58.27
2018-11-05T10:10:17.685Z,56.89
2018-11-05T10:12:46.132Z,57.31
2018-11-05T10:15:15.870Z,58.05
2018-11-05T10:17:44.640Z,58.17
2018-11-05T10:20:21.055Z,58.59
2018-11-05T10:22:50.004Z,59.79
2018-11-05T10:25:30.087Z,58.81
2018-11-05T10:28:03.859Z,57.48
2018-11-05T10:30:33.241Z,58.69
2018-11-05T10:33:02.389Z,59.34
2018-11-05T10:35:36.323Z,57.79
2018-11-05T10:38:05.192Z,58.93
2018-11-05T10:40:33.764Z,60.58
2018-11-05T10:43:02.174Z,56.87
2018-11-05T10:45:30.660Z,58.24
2018-11-05T10:47:59.107Z,56.65
2018-11-05T10:50:27.590Z,56.47
2018-11-05T10:52:56.089Z,57.60
2018-11-05T10:58:07.533Z,56.01
2018-11-05T11:00:41.420Z,57.01
2018-11-05T11:03:18.832Z,56.63
2018-11-05T11:05:47.623Z,56.56
2018-11-05T11:08:16.598Z,55.91
2018-11-05T11:10:45.467Z,54.78
2018-11-05T11:13:14.292Z,56.11
2018-11-05T11:15:43.043Z,57.49
2018-11-05T11:18:11.512Z,58.71
2018-11-05T11:20:40.054Z,57.46
2018-11-05T11:23:08.502Z,56.14
2018-11-05T11:25:37.009Z,57.00
2018-11-05T11:28:06.111Z,58.74
2018-11-05T11:30:34.527Z,58.98
2018-11-05T11:33:02.988Z,59.09
2018-11-05T11:35:31.589Z,57.99
2018-11-05T11:38:00.076Z,57.60
2018-11-05T11:40:28.612Z,57.43
2018-11-05T11:42:57.051Z,56.70
2018-11-05T11:45:25.912Z,57.07
2018-11-05T11:47:54.735Z,55.26
2018-11-05T11:50:23.388Z,56.46
2018-11-05T11:52:52.356Z,58.94
2018-11-05T11:55:21.946Z,57.00
2018-11-05T11:57:50.466Z,55.83
2018-11-05T12:00:22.056Z,55.28
2018-11-05T12:02:51.446Z,57.09
2018-11-05T12:05:20.272Z,57.07
2018-11-05T12:07:49.669Z,55.52
2018-11-05T12:10:20.910Z,56.13
2018-11-05T12:12:49.414Z,58.44
2018-11-05T12:15:18.859Z,54.05
2018-11-05T12:17:48.392Z,54.79
2018-11-05T12:20:18.351Z,56.24
2018-11-05T12:22:47.565Z,53.28
2018-11-05T12:25:16.060Z,53.56
2018-11-05T12:27:44.816Z,52.52
2018-11-05T12:30:15.864Z,50.33
2018-11-05T12:32:45.431Z,54.22
2018-11-05T12:35:14.461Z,53.46
2018-11-05T12:37:44.826Z,54.31
2018-11-05T12:40:14.952Z,55.87
2018-11-05T12:42:44.888Z,54.30
2018-11-05T12:45:13.360Z,53.06
2018-11-05T12:47:41.867Z,54.67
2018-11-05T12:50:14.453Z,56.14
2018-11-05T12:52:43.729Z,54.85
2018-11-05T12:55:12.283Z,55.07
2018-11-05T12:57:41.153Z,55.50
2018-11-05T13:00:13.344Z,55.62
2018-11-05T13:02:41.800Z,55.42
2018-11-05T13:05:11.948Z,53.74
2018-11-05T13:07:40.754Z,53.75
2018-11-05T13:10:11.484Z,55.45
2018-11-05T13:12:40.401Z,53.77
2018-11-05T13:15:09.799Z,55.47
2018-11-05T13:17:39.111Z,53.54
2018-11-05T13:20:09.968Z,54.34
2018-11-05T13:22:38.805Z,53.97
2018-11-05T13:25:07.356Z,53.20
2018-11-05T13:27:35.859Z,51.29
2018-11-05T13:30:05.339Z,51.91
2018-11-05T13:32:34.199Z,57.42
2018-11-05T13:35:02.964Z,57.20
2018-11-05T13:37:32.139Z,55.24
2018-11-05T13:40:00.736Z,56.41
2018-11-05T13:42:29.288Z,55.96
2018-11-05T13:44:57.801Z,56.36
2018-11-05T13:47:26.963Z,53.86
2018-11-05T13:49:55.238Z,55.23
2018-11-05T13:52:23.568Z,57.92
2018-11-05T13:54:52.194Z,57.03
2018-11-05T13:57:20.567Z,58.39
2018-11-05T13:59:49.121Z,56.25
2018-11-05T14:02:17.983Z,55.95
2018-11-05T14:04:46.584Z,58.01
2018-11-05T14:07:15.486Z,57.30
2018-11-05T14:09:44.352Z,55.82
2018-11-05T14:12:13.271Z,57.54
2018-11-05T14:14:41.935Z,57.46
2018-11-05T14:17:10.708Z,54.75
2018-11-05T14:19:39.175Z,55.60
2018-11-05T14:22:07.895Z,56.08
2018-11-05T14:24:36.643Z,54.20
2018-11-05T14:27:05.534Z,56.28
2018-11-05T14:29:34.808Z,55.77
2018-11-05T14:32:02.600Z,54.23
2018-11-05T14:34:31.094Z,52.56
2018-11-05T14:36:59.595Z,55.75
2018-11-05T14:39:27.978Z,55.76
2018-11-05T14:41:56.511Z,55.41
2018-11-05T14:44:25.371Z,56.00
2018-11-05T14:46:53.844Z,57.67
2018-11-05T14:49:22.628Z,59.32
2018-11-05T14:51:52.086Z,59.02
2018-11-05T14:54:20.531Z,59.78
2018-11-05T14:56:49.236Z,58.89
2018-11-05T14:59:17.728Z,59.60
2018-11-05T15:01:46.555Z,62.81
2018-11-05T15:04:15.795Z,61.65
2018-11-05T15:06:44.424Z,61.57
2018-11-05T15:09:13.760Z,64.77
2018-11-05T15:11:42.393Z,64.48
2018-11-05T15:14:11.101Z,64.55
2018-11-05T15:16:39.589Z,63.05
2018-11-05T15:19:08.305Z,64.76
2018-11-05T15:21:36.817Z,64.80
2018-11-05T15:24:05.589Z,64.11
2018-11-05T15:26:34.167Z,64.71
2018-11-05T15:29:02.630Z,63.45
2018-11-05T15:31:31.104Z,64.40
2018-11-05T15:33:59.905Z,66.50
2018-11-05T15:36:28.313Z,67.93
2018-11-05T15:38:57.136Z,66.30
2018-11-05T15:41:26.206Z,67.48
2018-11-05T15:43:55.040Z,69.32
2018-11-05T15:46:23.551Z,68.50
2018-11-05T15:48:52.116Z,67.69
2018-11-05T15:51:21.104Z,69.31
2018-11-05T15:53:49.540Z,69.17
2018-11-05T15:56:17.961Z,68.31
2018-11-05T15:58:46.539Z,73.20
2018-11-05T16:01:15.095Z,69.73
2018-11-05T16:03:43.628Z,70.32
2018-11-05T16:06:12.152Z,68.41
2018-11-05T16:08:40.793Z,72.63
2018-11-05T16:11:09.514Z,74.10
2018-11-05T16:13:38.341Z,69.04
2018-11-05T16:16:07.033Z,70.81
2018-11-05T16:18:35.530Z,69.99
2018-11-05T16:21:03.964Z,71.42
2018-11-05T16:23:32.498Z,73.69
2018-11-05T16:26:01.348Z,72.75
2018-11-05T16:28:30.025Z,73.89
2018-11-05T16:30:58.517Z,75.84
2018-11-05T16:33:27.003Z,74.88
2018-11-05T16:35:55.448Z,75.69
2018-11-05T16:38:23.999Z,73.71
2018-11-05T16:40:52.580Z,75.75
2018-11-05T16:43:21.146Z,76.50
2018-11-05T16:45:49.765Z,74.25
2018-11-05T16:48:18.188Z,74.27
2018-11-05T16:50:46.711Z,74.11
2018-11-05T16:53:15.184Z,75.38
2018-11-05T16:55:43.683Z,77.33
2018-11-05T16:58:12.253Z,77.35
2018-11-05T17:00:41.311Z,77.37
2018-11-05T17:03:10.543Z,78.12
2018-11-05T17:05:39.193Z,78.43
2018-11-05T17:08:07.818Z,76.52
2018-11-05T17:10:37.296Z,79.03
2018-11-05T17:13:06.377Z,78.02
2018-11-05T17:15:34.821Z,77.58
2018-11-05T17:18:03.388Z,77.72
2018-11-05T17:20:31.873Z,79.43
2018-11-05T17:23:00.416Z,79.93
2018-11-05T17:25:28.994Z,79.60
2018-11-05T17:27:57.695Z,78.37
2018-11-05T17:30:26.772Z,77.64
2018-11-05T17:32:55.516Z,79.49
2018-11-05T17:35:24.007Z,78.44
2018-11-05T17:37:52.511Z,77.35
2018-11-05T17:40:22.412Z,79.37
2018-11-05T17:42:50.933Z,77.89
2018-11-05T17:45:20.264Z,78.74
2018-11-05T17:47:49.235Z,77.19
2018-11-05T17:50:19.473Z,79.77
2018-11-05T17:52:47.979Z,79.94
2018-11-05T17:55:16.556Z,77.56
2018-11-05T17:57:46.241Z,78.17
2018-11-05T18:00:16.674Z,79.28
2018-11-05T18:02:45.148Z,77.33
2018-11-05T18:05:14.456Z,78.20
2018-11-05T18:07:43.284Z,78.94
2018-11-05T18:10:11.802Z,79.01
2018-11-05T18:12:40.641Z,78.50
2018-11-05T18:15:10.743Z,77.84
2018-11-05T18:17:40.283Z,77.36
2018-11-05T18:20:10.276Z,79.71
2018-11-05T18:22:39.173Z,80.58
2018-11-05T18:25:10.315Z,80.19
2018-11-05T18:27:39.120Z,78.72
2018-11-05T18:30:08.706Z,77.95
2018-11-05T18:32:37.311Z,79.49
2018-11-05T18:35:07.606Z,79.27
2018-11-05T18:37:36.539Z,79.54
2018-11-05T18:40:07.275Z,79.53
2018-11-05T18:42:36.066Z,77.99
2018-11-05T18:45:04.639Z,78.12
2018-11-05T18:47:33.228Z,76.38
2018-11-05T18:50:01.741Z,77.66
2018-11-05T18:52:30.235Z,78.23
2018-11-05T18:54:58.716Z,79.24
2018-11-05T18:59:54.640Z,77.29
2018-11-05T19:02:29.451Z,78.84
2018-11-05T19:04:58.258Z,74.15
2018-11-05T19:07:26.907Z,73.64
2018-11-05T19:09:55.624Z,75.16
2018-11-05T19:12:24.123Z,74.93
2018-11-05T19:14:53.228Z,75.20
2018-11-05T19:17:21.922Z,76.05
2018-11-05T19:19:50.358Z,73.61
2018-11-05T19:22:19.231Z,75.34
2018-11-05T19:24:47.680Z,74.44
2018-11-05T19:27:16.395Z,73.82
2018-11-05T19:29:44.949Z,73.65
2018-11-05T19:32:13.436Z,72.59
2018-11-05T19:34:41.969Z,71.75
2018-11-05T19:37:11.136Z,74.28
2018-11-05T19:39:39.683Z,72.64
2018-11-05T19:42:08.470Z,71.12
2018-11-05T19:44:36.906Z,73.08
2018-11-05T19:47:05.473Z,73.55
2018-11-05T19:49:34.031Z,72.86
2018-11-05T19:52:02.855Z,70.75
2018-11-05T19:54:31.285Z,71.14
2018-11-05T19:56:59.733Z,71.50
2018-11-05T19:59:28.428Z,71.28
2018-11-05T20:01:57.205Z,71.44
2018-11-05T20:04:25.684Z,71.37
2018-11-05T20:06:54.245Z,72.49
2018-11-05T20:09:22.738Z,72.96
2018-11-05T20:11:51.209Z,72.09
2018-11-05T20:14:19.759Z,71.97
2018-11-05T20:16:48.316Z,71.48
2018-11-05T20:22:15.712Z,72.76
2018-11-05T20:24:44.149Z,71.24
2018-11-05T20:27:12.733Z,70.64
2018-11-05T20:29:41.556Z,71.61
2018-11-05T20:32:10.469Z,70.72
2018-11-05T20:34:38.859Z,72.47
2018-11-05T20:37:07.330Z,71.37
2018-11-05T20:39:35.795Z,73.11
2018-11-05T20:42:04.331Z,71.27
2018-11-05T20:44:32.867Z,71.25
2018-11-05T20:47:01.367Z,72.89
2018-11-05T20:49:44.614Z,73.07
2018-11-05T20:52:13.117Z,71.25
2018-11-05T20:54:41.596Z,71.66
2018-11-05T20:57:10.074Z,72.54
2018-11-05T20:59:38.680Z,71.72
2018-11-05T21:02:07.437Z,70.72
2018-11-05T21:04:35.936Z,71.58
2018-11-05T21:07:04.483Z,71.79
2018-11-05T21:09:32.953Z,73.81
2018-11-05T21:12:01.439Z,72.87
2018-11-05T21:14:30.030Z,73.68
2018-11-05T21:16:58.779Z,73.07
2018-11-05T21:19:27.448Z,71.92
2018-11-05T21:21:56.132Z,72.60
2018-11-05T21:24:25.810Z,72.33
2018-11-05T21:26:54.965Z,72.73
2018-11-05T21:29:23.641Z,72.90
2018-11-05T21:31:52.215Z,73.11
2018-11-05T21:34:20.721Z,71.16
2018-11-05T21:36:49.227Z,73.10
2018-11-05T21:39:17.697Z,73.10
2018-11-05T21:41:46.378Z,72.60
2018-11-05T21:44:15.439Z,73.78
2018-11-05T21:46:43.933Z,71.61
2018-11-05T21:49:12.875Z,74.28
2018-11-05T21:51:41.822Z,71.96
2018-11-05T21:54:10.387Z,72.70
2018-11-05T21:56:38.828Z,72.96
2018-11-05T21:59:07.891Z,71.69
2018-11-05T22:01:36.405Z,71.60
2018-11-05T22:04:05.425Z,68.39
2018-11-05T22:06:33.985Z,70.19
2018-11-05T22:09:02.478Z,70.21
2018-11-05T22:11:30.946Z,70.70
2018-11-05T22:13:59.415Z,68.71
2018-11-05T22:16:27.951Z,68.89
2018-11-05T22:18:56.779Z,67.92
2018-11-05T22:21:25.251Z,68.46
2018-11-05T22:23:53.955Z,68.91
2018-11-05T22:26:22.404Z,68.70
2018-11-05T22:28:50.891Z,70.32
2018-11-05T22:31:19.321Z,70.14
2018-11-05T22:33:48.079Z,69.68
2018-11-05T22:36:16.813Z,72.61
2018-11-05T22:38:45.323Z,72.55
2018-11-05T22:41:14.072Z,73.60
2018-11-05T22:43:42.592Z,72.30
2018-11-05T22:46:11.059Z,70.12
2018-11-05T22:48:39.637Z,70.11
2018-11-05T22:51:08.160Z,70.72
2018-11-05T22:53:36.687Z,69.01
2018-11-05T22:56:05.838Z,67.83
2018-11-05T22:58:34.300Z,67.01
2018-11-05T23:01:14.052Z,68.05
2018-11-05T23:03:42.505Z,68.32
2018-11-05T23:06:10.975Z,66.88
2018-11-05T23:08:39.439Z,68.33
2018-11-05T23:11:07.919Z,68.07
2018-11-05T23:13:36.408Z,67.94
2018-11-05T23:16:05.534Z,66.99
2018-11-05T23:18:34.007Z,67.33
2018-11-05T23:21:02.472Z,67.43
2018-11-05T23:23:31.003Z,67.45
2018-11-05T23:25:59.789Z,66.36
2018-11-05T23:28:28.259Z,67.36
2018-11-05T23:30:56.762Z,67.26
2018-11-05T23:33:25.205Z,69.93
2018-11-05T23:35:53.684Z,67.81
2018-11-05T23:38:22.162Z,67.89
2018-11-05T23:40:50.703Z,66.39
2018-11-05T23:43:19.146Z,69.05
2018-11-05T23:45:47.760Z,66.97
2018-11-05T23:48:16.282Z,64.06
2018-11-05T23:50:44.786Z,66.69
2018-11-05T23:53:13.427Z,67.11
2018-11-05T23:55:41.887Z,65.14
2018-11-05T23:58:10.460Z,64.48
